Time;durP1;ratioP1;P1;durP2;ratioP2;P2;SDS_P1;SDS_P2;PMS_P1;PMS_P2;Temp;Humidity;BMP_temperature;BMP_pressure;BME280_temperature;BME280_humidity;BME280_pressure;Samples;Min_cycle;Max_cycle;Signal;HPM_P1;HPM_P2
2023/09/01 00:02:20;;;;;;;1999.90;999.90;;;;;;;14.76;100.00;94417.06;5009010;28;20202;-53
2023/09/01 00:04:45;;;;;;;1999.90;999.90;;;;;;;14.79;100.00;94418.88;5008624;28;20194;-55
2023/09/01 00:07:11;;;;;;;1999.90;999.90;;;;;;;14.83;100.00;94422.25;5009193;28;20179;-57
2023/09/01 00:09:36;;;;;;;1999.90;999.90;;;;;;;14.85;100.00;94424.56;5008942;28;20275;-56
2023/09/01 00:12:02;;;;;;;1999.90;999.90;;;;;;;14.84;100.00;94429.31;5009106;28;20198;-56
2023/09/01 00:14:27;;;;;;;1999.90;999.90;;;;;;;14.86;100.00;94426.84;5008768;28;20225;-56
2023/09/01 00:16:52;;;;;;;1999.90;999.90;;;;;;;14.88;100.00;94421.69;5008278;28;20194;-52
2023/09/01 00:19:18;;;;;;;1999.90;999.90;;;;;;;14.88;100.00;94434.66;5008542;28;20234;-54
2023/09/01 00:21:44;;;;;;;1999.90;999.90;;;;;;;14.88;100.00;94432.66;5008298;28;20222;-56
2023/09/01 00:24:10;;;;;;;1999.90;999.90;;;;;;;14.88;100.00;94429.94;5008260;28;20248;-57
2023/09/01 00:26:35;;;;;;;1999.90;999.90;;;;;;;14.88;100.00;94429.94;5008064;28;20198;-51
2023/09/01 00:29:00;;;;;;;1999.90;999.90;;;;;;;14.88;100.00;94424.44;5008586;28;20263;-54
2023/09/01 00:31:26;;;;;;;1999.90;999.90;;;;;;;14.81;100.00;94429.44;5008106;28;20362;-55
2023/09/01 00:33:51;;;;;;;1999.90;999.90;;;;;;;14.79;100.00;94432.63;5008047;28;20241;-57
2023/09/01 00:36:16;;;;;;;1999.90;999.90;;;;;;;14.78;100.00;94425.59;5008115;28;20222;-57
2023/09/01 00:38:41;;;;;;;1999.90;999.90;;;;;;;14.71;100.00;94420.41;5007751;28;20195;-59
2023/09/01 00:41:07;;;;;;;1999.90;999.90;;;;;;;14.69;100.00;94428.34;5008383;28;20194;-57
2023/09/01 00:43:32;;;;;;;1999.90;999.90;;;;;;;14.67;100.00;94430.75;5007847;28;20301;-56
2023/09/01 00:45:58;;;;;;;1999.90;999.90;;;;;;;14.66;100.00;94418.25;5008063;28;20202;-54
2023/09/01 00:48:24;;;;;;;1999.90;999.90;;;;;;;14.61;100.00;94416.06;5007569;28;20453;-58
2023/09/01 00:50:50;;;;;;;1999.90;999.90;;;;;;;14.58;100.00;94408.75;5007784;28;20230;-52
2023/09/01 00:53:18;;;;;;;1999.90;999.90;;;;;;;14.58;100.00;94403.25;5007946;28;20195;-51
2023/09/01 00:55:43;;;;;;;1999.90;999.90;;;;;;;14.55;100.00;94384.94;5007551;28;20264;-56
2023/09/01 00:58:08;;;;;;;1999.90;999.90;;;;;;;14.56;100.00;94374.69;5007600;28;20183;-49
2023/09/01 01:00:34;;;;;;;1999.90;999.90;;;;;;;14.54;100.00;94369.66;5007300;28;20238;-53
2023/09/01 01:03:05;;;;;;;1999.90;999.90;;;;;;;14.51;100.00;94359.59;5007837;28;20206;-52
2023/09/01 01:06:09;;;;;;;1999.90;999.90;;;;;;;14.48;100.00;94355.00;5007753;28;20214;-53
2023/09/01 01:09:02;;;;;;;1999.90;999.90;;;;;;;14.49;100.00;94342.78;5007950;28;20218;-54
2023/09/01 01:11:56;;;;;;;1999.90;999.90;;;;;;;14.49;100.00;94340.03;5007792;28;20507;-50
2023/09/01 01:14:27;;;;;;;1999.90;999.90;;;;;;;14.44;100.00;94346.13;5008275;28;20190;-52
2023/09/01 01:16:54;;;;;;;1999.90;999.90;;;;;;;14.41;100.00;94341.53;5007285;28;20190;-53
2023/09/01 01:19:41;;;;;;;1999.90;999.90;;;;;;;14.44;100.00;94334.38;5007895;28;20211;-53
2023/09/01 01:22:07;;;;;;;1999.90;999.90;;;;;;;14.44;100.00;94324.16;5007828;28;20194;-53
2023/09/01 01:24:34;;;;;;;1999.90;999.90;;;;;;;14.43;100.00;94311.63;5007540;28;20210;-49
2023/09/01 01:27:00;;;;;;;1999.90;999.90;;;;;;;14.40;100.00;94307.03;5007867;28;20246;-49
2023/09/01 01:29:28;;;;;;;1999.90;999.90;;;;;;;14.36;100.00;94300.94;5007325;28;20388;-55
2023/09/01 01:31:54;;;;;;;1999.90;999.90;;;;;;;14.31;100.00;94307.00;5007460;28;20191;-50
2023/09/01 01:34:41;;;;;;;1999.90;999.90;;;;;;;14.18;100.00;94308.31;5007840;28;20207;-53
2023/09/01 01:37:19;;;;;;;1999.90;999.90;;;;;;;14.13;100.00;94314.41;5006846;28;20253;-54
2023/09/01 01:39:47;;;;;;;1999.90;999.90;;;;;;;14.09;100.00;94317.28;5007535;28;20217;-55
2023/09/01 01:42:18;;;;;;;1999.90;999.90;;;;;;;14.03;100.00;94327.34;5007716;28;20202;-54
2023/09/01 01:44:49;;;;;;;1999.90;999.90;;;;;;;14.00;100.00;94327.47;5007222;28;20201;-54
2023/09/01 01:47:16;;;;;;;1999.90;999.90;;;;;;;13.95;100.00;94334.28;5007604;28;20187;-50
2023/09/01 01:49:41;;;;;;;1999.90;999.90;;;;;;;13.95;100.00;94347.28;5007315;28;20195;-53
2023/09/01 01:52:07;;;;;;;1999.90;999.90;;;;;;;13.89;100.00;94355.31;5007328;28;20187;-53
2023/09/01 01:54:32;;;;;;;1999.90;999.90;;;;;;;13.93;100.00;94360.66;5007490;28;20191;-55
2023/09/01 01:56:58;;;;;;;1999.90;999.90;;;;;;;13.90;100.00;94367.03;5007293;28;20194;-50
2023/09/01 01:59:23;;;;;;;1999.90;999.90;;;;;;;13.88;100.00;94377.72;5007474;28;20203;-55
2023/09/01 02:01:49;;;;;;;1999.90;999.90;;;;;;;13.86;100.00;94394.63;5007763;28;20183;-56
2023/09/01 02:04:14;;;;;;;1999.90;999.90;;;;;;;13.85;100.00;94393.13;5006821;28;20171;-54
2023/09/01 02:06:40;;;;;;;1999.90;999.90;;;;;;;13.81;100.00;94402.69;5007630;28;20199;-55
2023/09/01 02:09:09;;;;;;;1999.90;999.90;;;;;;;13.83;100.00;94406.50;5007487;28;20270;-52
2023/09/01 02:11:37;;;;;;;1999.90;999.90;;;;;;;13.80;100.00;94412.13;5008474;28;20206;-52
2023/09/01 02:14:03;;;;;;;1999.90;999.90;;;;;;;13.77;100.00;94419.25;5010474;28;20266;-51
2023/09/01 02:16:29;;;;;;;1999.90;999.90;;;;;;;13.80;100.00;94423.13;5010542;28;20202;-55
2023/09/01 02:18:54;;;;;;;1999.90;999.90;;;;;;;13.77;100.00;94424.75;5010565;28;20206;-50
2023/09/01 02:21:20;;;;;;;1999.90;999.90;;;;;;;13.80;100.00;94423.13;5010535;28;20191;-52
2023/09/01 02:23:49;;;;;;;1999.90;999.90;;;;;;;13.81;100.00;94428.16;5010312;28;20222;-55
2023/09/01 02:26:19;;;;;;;1999.90;999.90;;;;;;;13.82;100.00;94424.19;5010354;28;20217;-56
2023/09/01 02:28:45;;;;;;;1999.90;999.90;;;;;;;13.77;100.00;94429.50;5010722;28;20191;-55
2023/09/01 02:31:10;;;;;;;1999.90;999.90;;;;;;;13.76;100.00;94427.97;5010939;28;20191;-53
2023/09/01 02:33:35;;;;;;;1999.90;999.90;;;;;;;13.76;100.00;94412.25;5010404;28;20178;-56
2023/09/01 02:36:33;;;;;;;1999.90;999.90;;;;;;;13.74;100.00;94403.72;5010320;28;20191;-57
2023/09/01 02:38:59;;;;;;;1999.90;999.90;;;;;;;13.74;100.00;94409.19;5010243;28;20230;-55
2023/09/01 02:41:25;;;;;;;1999.90;999.90;;;;;;;13.71;100.00;94410.09;5010273;28;20194;-55
2023/09/01 02:43:52;;;;;;;1999.90;999.90;;;;;;;13.72;100.00;94400.63;5010120;28;20191;-58
2023/09/01 02:46:17;;;;;;;1999.90;999.90;;;;;;;13.70;100.00;94408.56;5009968;28;20190;-55
2023/09/01 02:48:42;;;;;;;1999.90;999.90;;;;;;;13.70;100.00;94408.56;5010081;28;20221;-53
2023/09/01 02:51:08;;;;;;;1999.90;999.90;;;;;;;13.70;100.00;94407.78;5010016;28;20202;-54
2023/09/01 02:53:35;;;;;;;1999.90;999.90;;;;;;;13.72;100.00;94408.09;5009674;28;20262;-55
2023/09/01 02:56:00;;;;;;;1999.90;999.90;;;;;;;13.73;100.00;94412.41;5009736;28;20175;-56
2023/09/01 02:58:26;;;;;;;1999.90;999.90;;;;;;;13.80;100.00;94423.13;5010127;28;20194;-52
2023/09/01 03:00:52;;;;;;;1999.90;999.90;;;;;;;13.81;100.00;94419.94;5010293;28;20246;-55
2023/09/01 03:03:21;;;;;;;1999.90;999.90;;;;;;;13.79;100.00;94416.06;5009614;28;20199;-54
2023/09/01 03:05:48;;;;;;;1999.90;999.90;;;;;;;13.76;100.00;94411.50;5009563;28;20199;-52
2023/09/01 03:08:14;;;;;;;1999.90;999.90;;;;;;;13.72;100.00;94417.09;5009511;28;20198;-56
2023/09/01 03:10:40;;;;;;;1999.90;999.90;;;;;;;13.74;100.00;94430.38;5009417;28;20236;-57
2023/09/01 03:13:05;;;;;;;1999.90;999.90;;;;;;;13.71;100.00;94434.78;5009796;28;20195;-55
2023/09/01 03:15:31;;;;;;;1999.90;999.90;;;;;;;13.64;100.00;94437.78;5009485;28;20225;-55
2023/09/01 03:17:56;;;;;;;1999.90;999.90;;;;;;;13.61;100.00;94444.16;5009233;28;20332;-57
2023/09/01 03:20:23;;;;;;;1999.90;999.90;;;;;;;13.66;100.00;94434.59;5009413;28;20199;-56
2023/09/01 03:22:49;;;;;;;1999.90;999.90;;;;;;;13.63;100.00;94451.94;5008938;28;20230;-59
2023/09/01 03:25:14;;;;;;;1999.90;999.90;;;;;;;13.67;100.00;94453.34;5009382;28;20182;-57
2023/09/01 03:27:40;;;;;;;1999.90;999.90;;;;;;;13.65;100.00;94452.28;5009344;28;20206;-54
2023/09/01 03:30:10;;;;;;;1999.90;999.90;;;;;;;13.66;100.00;94451.81;5009573;28;20213;-58
2023/09/01 03:32:37;;;;;;;1999.90;999.90;;;;;;;13.73;100.00;94456.28;5009480;28;20230;-57
2023/09/01 03:35:03;;;;;;;1999.90;999.90;;;;;;;13.72;100.00;94460.22;5009466;28;20405;-57
2023/09/01 03:37:28;;;;;;;1999.90;999.90;;;;;;;13.73;100.00;94462.53;5009087;28;20234;-55
2023/09/01 03:39:54;;;;;;;1999.90;999.90;;;;;;;13.75;100.00;94460.13;5008935;28;20538;-56
2023/09/01 03:42:19;;;;;;;1999.90;999.90;;;;;;;13.74;100.00;94464.09;5009010;28;20199;-55
2023/09/01 03:44:45;;;;;;;1999.90;999.90;;;;;;;13.75;100.00;94468.34;5008887;28;20269;-56
2023/09/01 03:47:10;;;;;;;1999.90;999.90;;;;;;;13.75;100.00;94468.34;5008769;28;20202;-57
2023/09/01 03:49:36;;;;;;;1999.90;999.90;;;;;;;13.77;100.00;94473.41;5008904;28;20191;-56
2023/09/01 03:52:02;;;;;;;1999.90;999.90;;;;;;;13.80;100.00;94473.25;5009195;28;20191;-57
2023/09/01 03:54:27;;;;;;;1999.90;999.90;;;;;;;13.79;100.00;94482.72;5008433;28;20571;-57
2023/09/01 03:56:53;;;;;;;1999.90;999.90;;;;;;;13.84;100.00;94479.38;5008492;28;20180;-57
2023/09/01 03:59:19;;;;;;;1999.90;999.90;;;;;;;13.80;100.00;94478.75;5008945;28;20231;-57
2023/09/01 04:01:45;;;;;;;1999.90;999.90;;;;;;;13.79;100.00;94493.69;5008951;28;20195;-56
2023/09/01 04:04:11;;;;;;;1999.90;999.90;;;;;;;13.79;100.00;94499.19;5008642;28;20194;-58
2023/09/01 04:06:37;;;;;;;1999.90;999.90;;;;;;;13.79;100.00;94501.94;5008212;28;20297;-57
2023/09/01 04:09:03;;;;;;;1999.90;999.90;;;;;;;13.81;100.00;94491.28;5008329;28;20199;-58
2023/09/01 04:11:29;;;;;;;1999.90;999.90;;;;;;;13.82;100.00;94497.50;5008244;28;20199;-57
2023/09/01 04:13:55;;;;;;;1999.90;999.90;;;;;;;13.86;100.00;94493.44;5008238;28;20203;-58
2023/09/01 04:16:21;;;;;;;1999.90;999.90;;;;;;;13.89;100.00;94497.28;5008464;28;20221;-56
2023/09/01 04:18:47;;;;;;;1999.90;999.90;;;;;;;13.88;100.00;94501.97;5008644;28;20207;-59
2023/09/01 04:21:13;;;;;;;1999.90;999.90;;;;;;;13.91;100.00;94501.09;5007974;28;20245;-57
2023/09/01 04:23:39;;;;;;;1999.90;999.90;;;;;;;13.94;100.00;94511.19;5007999;28;20210;-57
2023/09/01 04:26:04;;;;;;;1999.90;999.90;;;;;;;13.94;100.00;94515.91;5008509;28;20181;-58
2023/09/01 04:28:31;;;;;;;1999.90;999.90;;;;;;;13.93;100.00;94525.34;5008464;28;20207;-57
2023/09/01 04:30:59;;;;;;;1999.90;999.90;;;;;;;13.93;100.00;94517.91;5008002;28;20195;-59
2023/09/01 04:33:28;;;;;;;1999.90;999.90;;;;;;;13.94;100.00;94530.41;5007747;28;20203;-58
2023/09/01 04:36:06;;;;;;;1999.90;999.90;;;;;;;13.99;100.00;94524.34;5007802;28;20195;-58
2023/09/01 04:38:31;;;;;;;1999.90;999.90;;;;;;;13.97;100.00;94529.53;5008006;28;20195;-56
2023/09/01 04:40:58;;;;;;;1999.90;999.90;;;;;;;14.00;100.00;94522.38;5007787;28;20198;-57
2023/09/01 04:43:27;;;;;;;1999.90;999.90;;;;;;;14.04;100.00;94517.50;5007740;28;20195;-58
2023/09/01 04:45:53;;;;;;;1999.90;999.90;;;;;;;14.06;100.00;94518.59;5007547;28;20471;-60
2023/09/01 04:48:20;;;;;;;1999.90;999.90;;;;;;;14.09;100.00;94519.69;5007856;28;20214;-58
2023/09/01 04:50:46;;;;;;;1999.90;999.90;;;;;;;14.10;100.00;94513.75;5007684;28;20467;-61
2023/09/01 04:53:11;;;;;;;1999.90;999.90;;;;;;;14.09;100.00;94536.19;5008383;28;20195;-58
2023/09/01 04:55:36;;;;;;;1999.90;999.90;;;;;;;14.07;100.00;94544.09;5008188;28;20217;-58
2023/09/01 04:58:02;;;;;;;1999.90;999.90;;;;;;;14.07;100.00;94542.13;5007616;28;20203;-58
2023/09/01 05:00:27;;;;;;;1999.90;999.90;;;;;;;14.05;100.00;94549.25;5007958;28;20244;-58
2023/09/01 05:02:52;;;;;;;1999.90;999.90;;;;;;;14.09;100.00;94550.66;5007498;28;20203;-58
2023/09/01 05:05:18;;;;;;;1999.90;999.90;;;;;;;14.10;100.00;94552.22;5007709;28;20191;-58
2023/09/01 05:07:43;;;;;;;1999.90;999.90;;;;;;;14.15;100.00;94551.63;5007590;28;20206;-58
2023/09/01 05:10:09;;;;;;;1999.90;999.90;;;;;;;14.17;100.00;94546.44;5007378;28;20195;-58
2023/09/01 05:12:35;;;;;;;1999.90;999.90;;;;;;;14.25;100.00;94550.50;5007929;28;20234;-58
2023/09/01 05:15:01;;;;;;;1999.90;999.90;;;;;;;14.31;100.00;94548.72;5007529;28;20192;-58
2023/09/01 05:17:26;;;;;;;1999.90;999.90;;;;;;;14.33;100.00;94554.53;5007906;28;20271;-58
2023/09/01 05:19:51;;;;;;;1999.90;999.90;;;;;;;14.41;100.00;94552.28;5007284;28;20213;-58
2023/09/01 05:22:17;;;;;;;1999.90;999.90;;;;;;;14.49;100.00;94562.56;5007006;28;20190;-56
2023/09/01 05:24:42;;;;;;;1999.90;999.90;;;;;;;14.53;100.00;94574.19;5007342;28;20233;-58
2023/09/01 05:27:07;;;;;;;1999.90;999.90;;;;;;;14.58;100.00;94576.38;5007540;28;20202;-57
2023/09/01 05:29:33;;;;;;;1999.90;999.90;;;;;;;14.61;100.00;94578.22;5007431;28;20273;-57
2023/09/01 05:31:58;;;;;;;1999.90;999.90;;;;;;;14.66;100.00;94577.66;5007292;28;20198;-57
2023/09/01 05:34:23;;;;;;;1999.90;999.90;;;;;;;14.74;100.00;94581.66;5007581;28;20199;-58
2023/09/01 05:36:49;;;;;;;1999.90;999.90;;;;;;;14.74;100.00;94567.91;5007256;28;20230;-57
2023/09/01 05:39:14;;;;;;;1999.90;999.90;;;;;;;14.85;100.00;94571.03;5007219;28;20214;-58
2023/09/01 05:41:39;;;;;;;1999.90;999.90;;;;;;;14.95;100.00;94567.13;5007160;28;20195;-56
2023/09/01 05:44:05;;;;;;;1999.90;999.90;;;;;;;15.10;100.00;94551.59;5007199;28;20187;-57
2023/09/01 05:46:30;;;;;;;1999.90;999.90;;;;;;;15.34;100.00;94533.31;5008651;28;20195;-57
2023/09/01 05:48:55;;;;;;;1999.90;999.90;;;;;;;15.51;100.00;94531.88;5010907;28;20195;-58
2023/09/01 05:51:21;;;;;;;1999.90;999.90;;;;;;;15.61;100.00;94530.69;5011101;28;20218;-58
2023/09/01 05:53:46;;;;;;;1999.90;999.90;;;;;;;15.71;100.00;94507.47;5011332;28;20171;-57
2023/09/01 05:56:11;;;;;;;1999.90;999.90;;;;;;;15.74;100.00;94484.50;5011365;28;20191;-57
2023/09/01 05:58:37;;;;;;;1999.90;999.90;;;;;;;15.79;100.00;94442.59;5010865;28;20209;-58
2023/09/01 06:01:03;;;;;;;1999.90;999.90;;;;;;;15.88;100.00;94401.28;5011128;28;20195;-58
2023/09/01 06:03:28;;;;;;;1999.90;999.90;;;;;;;15.95;100.00;94365.16;5010833;28;20236;-58
2023/09/01 06:05:54;;;;;;;1999.90;999.90;;;;;;;16.10;100.00;94352.25;5010419;28;20270;-58
2023/09/01 06:08:19;;;;;;;1999.90;999.90;;;;;;;16.29;100.00;94326.16;5010648;28;20229;-58
2023/09/01 06:10:44;;;;;;;1999.90;999.90;;;;;;;16.32;100.00;94280.41;5010564;28;20195;-58
2023/09/01 06:13:10;;;;;;;1999.90;999.90;;;;;;;16.38;100.00;94257.25;5010464;28;20258;-59
2023/09/01 06:15:35;;;;;;;1999.90;999.90;;;;;;;16.43;100.00;94247.63;5010655;28;20195;-59
2023/09/01 06:18:01;;;;;;;1999.90;999.90;;;;;;;16.59;100.00;94235.41;5010450;28;20191;-58
2023/09/01 06:20:28;;;;;;;1999.90;999.90;;;;;;;16.78;100.00;94218.25;5010407;28;20233;-59
2023/09/01 06:22:54;;;;;;;1999.90;999.90;;;;;;;16.73;100.00;94220.91;5010294;28;20234;-58
2023/09/01 06:25:20;;;;;;;1999.90;999.90;;;;;;;16.96;100.00;94231.91;5010153;28;20172;-58
2023/09/01 06:27:46;;;;;;;1999.90;999.90;;;;;;;17.22;100.00;94235.66;5011045;28;20226;-59
2023/09/01 06:30:12;;;;;;;1999.90;999.90;;;;;;;17.38;100.00;94243.50;5010510;28;20207;-59
2023/09/01 06:32:37;;;;;;;1999.90;999.90;;;;;;;17.61;100.00;94250.19;5010119;28;20198;-58
2023/09/01 06:35:03;;;;;;;1999.90;999.90;;;;;;;17.54;100.00;94280.94;5009835;28;20206;-58
2023/09/01 06:37:29;;;;;;;1999.90;999.90;;;;;;;17.78;100.00;94276.09;5010231;28;20270;-59
2023/09/01 06:39:54;;;;;;;1999.90;999.90;;;;;;;17.95;100.00;94277.13;5009759;28;20370;-59
2023/09/01 06:42:20;;;;;;;1999.90;999.90;;;;;;;18.32;100.00;94287.25;5010065;28;20227;-59
2023/09/01 06:44:46;;;;;;;1999.90;999.90;;;;;;;19.28;100.00;94272.25;5009894;28;20199;-58
2023/09/01 06:47:11;;;;;;;1999.90;999.90;;;;;;;20.02;100.00;94317.56;5010051;28;20252;-58
2023/09/01 06:49:36;;;;;;;1999.90;999.90;;;;;;;20.54;100.00;94441.16;5010114;28;20195;-58
2023/09/01 06:52:02;;;;;;;1999.90;999.90;;;;;;;21.30;100.00;94629.13;5010034;28;20198;-59
2023/09/01 06:54:28;;;;;;;1999.90;999.90;;;;;;;20.99;100.00;94952.00;5009807;28;20218;-59
2023/09/01 06:56:53;;;;;;;1999.90;999.90;;;;;;;20.56;100.00;95049.88;5009744;28;20251;-59
2023/09/01 06:59:19;;;;;;;1999.90;999.90;;;;;;;20.08;100.00;95048.38;5010033;28;20234;-59
2023/09/01 07:01:44;;;;;;;1999.90;999.90;;;;;;;19.87;100.00;95020.94;5009825;28;20199;-59
2023/09/01 07:04:10;;;;;;;1999.90;999.90;;;;;;;19.60;100.00;95008.03;5010009;28;20206;-59
2023/09/01 07:06:35;;;;;;;1999.90;999.90;;;;;;;19.43;100.00;94963.34;5009527;28;20199;-59
2023/09/01 07:09:01;;;;;;;1999.90;999.90;;;;;;;19.40;100.00;94933.06;5009474;28;20199;-59
2023/09/01 07:11:26;;;;;;;1999.90;999.90;;;;;;;19.59;100.00;94931.69;5009535;28;20265;-59
2023/09/01 07:13:51;;;;;;;1999.90;999.90;;;;;;;19.97;100.00;94983.63;5009774;28;20206;-59
2023/09/01 07:16:17;;;;;;;1999.90;999.90;;;;;;;20.00;100.00;95030.56;5009825;28;20183;-60
2023/09/01 07:18:42;;;;;;;1999.90;999.90;;;;;;;20.19;100.00;95043.09;5009498;28;20305;-59
2023/09/01 07:21:07;;;;;;;1999.90;999.90;;;;;;;20.61;100.00;95081.75;5009451;28;20187;-59
2023/09/01 07:23:33;;;;;;;1999.90;999.90;;;;;;;20.95;100.00;95131.91;5009231;28;20238;-59
2023/09/01 07:25:59;;;;;;;1999.90;999.90;;;;;;;21.07;100.00;95189.19;5009346;28;20187;-60
2023/09/01 07:28:25;;;;;;;1999.90;999.90;;;;;;;21.20;100.00;95209.13;5009627;28;20175;-59
2023/09/01 07:30:51;;;;;;;1999.90;999.90;;;;;;;22.08;100.00;95244.09;5009479;28;20321;-59
2023/09/01 07:33:17;;;;;;;1999.90;999.90;;;;;;;24.32;100.00;95307.25;5009504;28;20199;-60
2023/09/01 07:35:47;;;;;;;1999.90;999.90;;;;;;;26.10;100.00;95339.34;5009198;28;20194;-59
2023/09/01 07:38:12;;;;;;;1999.90;999.90;;;;;;;25.98;100.00;95353.81;5009339;28;20198;-59
2023/09/01 07:40:38;;;;;;;1999.90;999.90;;;;;;;25.65;100.00;95351.66;5008792;28;20215;-60
2023/09/01 07:43:03;;;;;;;1999.90;999.90;;;;;;;25.14;100.00;95349.81;5008871;28;20237;-59
2023/09/01 07:45:28;;;;;;;1999.90;999.90;;;;;;;24.71;100.00;95361.47;5009048;28;20238;-59
2023/09/01 07:47:54;;;;;;;1999.90;999.90;;;;;;;24.08;100.00;95357.03;5008704;28;20200;-60
2023/09/01 07:50:23;;;;;;;1999.90;999.90;;;;;;;24.12;100.00;95350.00;5008842;28;20195;-60
2023/09/01 07:52:49;;;;;;;1999.90;999.90;;;;;;;23.98;100.00;95361.25;5008740;28;20191;-59
2023/09/01 07:55:14;;;;;;;1999.90;999.90;;;;;;;24.26;100.00;95353.94;5008537;28;20270;-61
2023/09/01 07:57:39;;;;;;;1999.90;999.90;;;;;;;24.36;100.00;95358.84;5009042;28;20175;-59
2023/09/01 08:00:07;;;;;;;1999.90;999.90;;;;;;;24.20;100.00;95361.47;5008915;28;20257;-59
2023/09/01 08:02:33;;;;;;;1999.90;999.90;;;;;;;24.08;100.00;95365.41;5009179;28;20217;-60
2023/09/01 08:04:58;;;;;;;1999.90;999.90;;;;;;;23.93;100.00;95356.38;5008519;28;20202;-60
2023/09/01 08:07:23;;;;;;;1999.90;999.90;;;;;;;23.75;100.00;95370.59;5008661;28;20195;-59
2023/09/01 08:09:49;;;;;;;1999.90;999.90;;;;;;;23.60;100.00;95364.34;5007840;28;20225;-59
2023/09/01 08:12:14;;;;;;;1999.90;999.90;;;;;;;24.86;100.00;95367.66;5008302;28;20191;-59
2023/09/01 08:14:39;;;;;;;1999.90;999.90;;;;;;;24.79;100.00;95373.72;5008311;28;20270;-60
2023/09/01 08:17:05;;;;;;;1999.90;999.90;;;;;;;24.41;100.00;95376.91;5008649;28;20191;-59
2023/09/01 08:19:30;;;;;;;1999.90;999.90;;;;;;;25.16;100.00;95374.47;5008137;28;20218;-59
2023/09/01 08:21:56;;;;;;;1999.90;999.90;;;;;;;26.85;100.00;95374.84;5008081;28;20195;-60
2023/09/01 08:24:21;;;;;;;1999.90;999.90;;;;;;;28.49;100.00;95388.94;5008067;28;20202;-59
2023/09/01 08:26:48;;;;;;;1999.90;999.90;;;;;;;29.89;100.00;95383.88;5008014;28;20195;-59
2023/09/01 08:29:14;;;;;;;1999.90;999.90;;;;;;;29.18;100.00;95384.63;5008406;28;20182;-65
2023/09/01 08:31:40;;;;;;;1999.90;999.90;;;;;;;30.72;99.68;95382.81;5008411;28;20195;-65
2023/09/01 08:34:10;;;;;;;1999.90;999.90;;;;;;;30.96;93.09;95389.09;5007756;28;20199;-68
2023/09/01 08:36:36;;;;;;;1999.90;999.90;;;;;;;30.07;92.95;95388.00;5008137;28;20206;-67
2023/09/01 08:39:03;;;;;;;1999.90;999.90;;;;;;;29.08;100.00;95394.66;5007981;28;20203;-66
2023/09/01 08:41:28;;;;;;;1999.90;999.90;;;;;;;29.03;100.00;95392.69;5007902;28;20195;-65
2023/09/01 08:43:57;;;;;;;1999.90;999.90;;;;;;;29.10;100.00;95378.03;5007822;28;20226;-66
2023/09/01 08:46:24;;;;;;;1999.90;999.90;;;;;;;29.21;95.70;95386.38;5008204;28;20195;-65
2023/09/01 08:48:49;;;;;;;1999.90;999.90;;;;;;;30.83;83.72;95391.09;5008304;28;20195;-67
2023/09/01 08:51:14;;;;;;;1999.90;999.90;;;;;;;31.84;77.62;95386.03;5008211;28;20199;-67
2023/09/01 08:53:41;;;;;;;1999.90;999.90;;;;;;;31.68;74.86;95385.03;5007901;28;20219;-66
2023/09/01 08:56:07;;;;;;;1999.90;999.90;;;;;;;31.72;71.14;95384.72;5007209;28;20283;-65
2023/09/01 08:58:33;;;;;;;1999.90;999.90;;;;;;;31.80;75.20;95392.03;5008093;28;20199;-67
2023/09/01 09:00:58;;;;;;;1999.90;999.90;;;;;;;31.65;71.08;95391.00;5007833;28;20191;-67
2023/09/01 09:03:24;;;;;;;1999.90;999.90;;;;;;;30.47;75.99;95376.47;5008058;28;20241;-68
2023/09/01 09:05:49;;;;;;;1999.90;999.90;;;;;;;30.05;78.65;95373.69;5008043;28;20202;-65
2023/09/01 09:08:17;;;;;;;1999.90;999.90;;;;;;;29.62;81.44;95384.19;5007215;28;20199;-66
2023/09/01 09:10:46;;;;;;;1999.90;999.90;;;;;;;29.06;88.83;95388.81;5007456;28;20199;-68
2023/09/01 09:13:26;;;;;;;1999.90;999.90;;;;;;;30.25;79.43;95387.28;5007392;28;20223;-68
2023/09/01 09:16:17;;;;;;;1999.90;999.90;;;;;;;29.99;82.41;95382.22;5007589;28;20197;-67
2023/09/01 09:18:45;;;;;;;1999.90;999.90;;;;;;;29.83;81.00;95373.97;5003264;28;20270;-68
2023/09/01 09:21:24;;;;;;;1999.90;999.90;;;;;;;29.06;86.25;95383.19;5010515;28;20195;-67
2023/09/01 09:23:50;;;;;;;1999.90;999.90;;;;;;;29.95;86.23;95376.13;5011043;28;20232;-67
2023/09/01 09:26:16;;;;;;;1999.90;999.90;;;;;;;29.52;86.42;95371.72;5011546;28;20195;-67
2023/09/01 09:28:43;;;;;;;1999.90;999.90;;;;;;;28.37;89.93;95376.22;5011447;28;20198;-67
2023/09/01 09:31:08;;;;;;;1999.90;999.90;;;;;;;27.65;99.71;95377.28;5011049;28;20229;-66
2023/09/01 09:33:34;;;;;;;1999.90;999.90;;;;;;;27.28;100.00;95379.69;5011316;28;20191;-68
2023/09/01 09:36:00;;;;;;;1999.90;999.90;;;;;;;27.68;100.00;95379.06;5011253;28;20195;-69
2023/09/01 09:38:43;;;;;;;1999.90;999.90;;;;;;;27.99;98.96;95375.94;5011240;28;20199;-68
2023/09/01 09:41:08;;;;;;;1999.90;999.90;;;;;;;28.38;96.65;95382.06;5011121;28;20172;-66
2023/09/01 09:43:45;;;;;;;1999.90;999.90;;;;;;;28.47;94.90;95383.09;5011583;28;20206;-66
2023/09/01 09:46:12;;;;;;;1999.90;999.90;;;;;;;28.48;91.16;95382.59;5011011;28;20199;-66
2023/09/01 09:48:38;;;;;;;1999.90;999.90;;;;;;;28.06;92.76;95380.22;5010691;28;20226;-66
2023/09/01 09:51:07;;;;;;;1999.90;999.90;;;;;;;27.83;95.16;95373.94;5010618;28;20205;-67
2023/09/01 09:53:34;;;;;;;1999.90;999.90;;;;;;;27.92;94.96;95378.50;5010963;28;20195;-68
2023/09/01 09:56:14;;;;;;;1999.90;999.90;;;;;;;28.49;91.82;95372.09;5010791;28;20201;-68
2023/09/01 09:58:40;;;;;;;1999.90;999.90;;;;;;;29.11;84.89;95371.13;5010884;28;20214;-66
2023/09/01 10:01:27;;;;;;;1999.90;999.90;;;;;;;29.76;78.96;95383.03;5010865;28;20255;-68
2023/09/01 10:03:54;;;;;;;1999.90;999.90;;;;;;;29.15;81.73;95378.00;5010997;28;20195;-68
2023/09/01 10:06:19;;;;;;;1999.90;999.90;;;;;;;29.31;78.24;95373.50;5011019;28;20241;-68
2023/09/01 10:08:45;;;;;;;1999.90;999.90;;;;;;;28.89;81.74;95376.91;5010738;28;20199;-68
2023/09/01 10:11:14;;;;;;;1999.90;999.90;;;;;;;28.58;85.40;95374.59;5010390;28;20191;-68
2023/09/01 10:13:42;;;;;;;1999.90;999.90;;;;;;;29.32;82.35;95375.03;5010559;28;20191;-68
2023/09/01 10:16:08;;;;;;;1999.90;999.90;;;;;;;29.11;80.44;95365.50;5010356;28;20199;-67
2023/09/01 10:18:33;;;;;;;1999.90;999.90;;;;;;;29.09;78.59;95360.38;5010619;28;20274;-68
2023/09/01 10:20:59;;;;;;;1999.90;999.90;;;;;;;28.87;81.98;95374.63;5010421;28;20206;-69
2023/09/01 10:23:26;;;;;;;1999.90;999.90;;;;;;;28.86;80.51;95377.94;5010543;28;20207;-69
2023/09/01 10:26:13;;;;;;;1999.90;999.90;;;;;;;28.53;82.50;95369.75;5010658;28;20194;-69
2023/09/01 10:29:03;;;;;;;1999.90;999.90;;;;;;;29.06;81.43;95374.75;5010794;28;20226;-69
2023/09/01 10:31:33;;;;;;;1999.90;999.90;;;;;;;29.65;78.49;95363.44;5009846;28;20199;-69
2023/09/01 10:34:13;;;;;;;1999.90;999.90;;;;;;;29.93;79.38;95366.69;5010064;28;20257;-69
2023/09/01 10:36:43;;;;;;;1999.90;999.90;;;;;;;29.98;76.37;95374.31;5009994;28;20219;-69
2023/09/01 10:39:24;;;;;;;1999.90;999.90;;;;;;;31.09;69.85;95371.44;5010022;28;20202;-68
2023/09/01 10:42:03;;;;;;;1999.90;999.90;;;;;;;31.40;68.79;95370.66;5010080;28;20195;-70
2023/09/01 10:44:48;;;;;;;1999.90;999.90;;;;;;;31.99;65.33;95369.28;5009959;28;20206;-69
2023/09/01 10:47:31;;;;;;;1999.90;999.90;;;;;;;32.35;63.79;95367.53;5009756;28;20221;-68
2023/09/01 10:50:06;;;;;;;1999.90;999.90;;;;;;;31.16;68.42;95370.78;5009770;28;20212;-69